Hewitt, New Jersey
Current Conditions -  °F | °C
As of 1:53 AM on Friday 28 Nov 2014 (Local Time) from KFWN Reporting Station
Overcast Overcast  
Wind Chill: 22°   Ceiling: 3800
Heat Index: 22°   Visibility: 10mi
Dew Point: 21°   Wind: 0mph
Humidity: 96%   Direction: NA
Pressure: 30.07"   Gusts: NA
Location:  41.14°N, 74.31°W
Report Text: KFWN 280653Z AUTO 00000KT 10SM OVC038 M06/M06 A3007 RMK AO2 SLP187 T10561061
Loading
Personal Weather Stations






























Interactive Weather Map New forecast layout! Learn more

10-Day Weather Forecast

Advertisements
Track Severe Weather on mobile